CMA CGM Platon — 2ACH6 — position and weather

sailwx.info

Track history (hours):
 
Tides and Currents Weather Stations Pressure Air Temp Water Temp Dewpoint Dewpoint Depression Visibility Wind Speed Wind Dir Waves Ship Positions

CMA CGM Platon

Last reported at 2017-Sep-20 09:21 UTC. Time now 2017-Sep-20 22:09 UTC.
Position N 31°38' W 010°41'.

Length 170 m; draft 9 m.

Type: Ship (hazmat cat A). MMSI: 235058584.

Date/timePositionNaut miles runAvg speedWind from/ knotsBaromVisibWave heightAir tempDewpointWater temp
2017-Sep-20 09:21N 31°38' W 010°41'2017.1
2017-Sep-20 08:12N 31°55' W 010°27'316.9
2017-Sep-20 08:00N 31°57' W 010°25'2217.0
2017-Sep-20 06:44N 32°15' W 010°10'1916.9
2017-Sep-20 05:36N 32°31' W 009°57'216.9
2017-Sep-20 05:27N 32°33' W 009°56'5116.6
2017-Sep-20 02:24N 33°09' W 009°14'6417.2
2017-Sep-19 22:40N 33°39' W 008°06'1416.7
2017-Sep-19 21:49N 33°41' W 007°49'516.8
2017-Sep-19 21:30N 33°41' W 007°43'161 6.5
2017-Sep-18 20:37N 35°56' W 005°55'1017.8
2017-Sep-18 20:04N 35°57' W 005°44'716.6
2017-Sep-18 19:39N 35°57' W 005°35'214.4
2017-Sep-18 19:31N 35°57' W 005°33'14 0.8
2017-Sep-18 00:35N 35°56' W 005°50'  
2017-Sep-15 18:39N 36°07' W 006°18'0 0.6
2017-Sep-15 18:21N 36°07' W 006°17'3311.0
2017-Sep-15 15:22N 35°58' W 005°38'410.5
2017-Sep-15 15:00N 35°59' W 005°34'5 9.7
2017-Sep-15 14:31N 36°00' W 005°28'4 8.9
2017-Sep-15 14:01N 36°03' W 005°24'5 9.3
2017-Sep-15 13:31N 36°08' W 005°25'0 0.1
2017-Sep-15 11:57N 36°08' W 005°25'0 0.0
2017-Sep-15 06:03N 36°08' W 005°25'0 0.0
2017-Sep-15 04:39N 36°08' W 005°25'0 0.0
2017-Sep-15 04:03N 36°08' W 005°25'0 0.2
2017-Sep-15 04:00N 36°08' W 005°25'0 0.1
2017-Sep-15 03:30N 36°08' W 005°25'0 0.1
2017-Sep-15 03:00N 36°08' W 005°25'0 0.0
2017-Sep-15 01:45N 36°08' W 005°25'0 0.1
2017-Sep-15 01:30N 36°08' W 005°25'0 0.0
2017-Sep-14 23:03N 36°08' W 005°25'0 0.0
2017-Sep-14 22:39N 36°08' W 005°25'0 1.0
2017-Sep-14 22:30N 36°08' W 005°25'1 2.6
2017-Sep-14 21:59N 36°07' W 005°24'3 6.2
2017-Sep-14 21:30N 36°05' W 005°23'4 8.8
2017-Sep-14 21:00N 36°00' W 005°23'612.1
2017-Sep-14 20:31N 35°57' W 005°29'1814.6
2017-Sep-14 19:17N 35°54' W 005°51'1815.1
2017-Sep-14 18:06N 35°46' W 006°11'216.0
2017-Sep-14 17:59N 35°45' W 006°12'1015.8
2017-Sep-14 17:20N 35°37' W 006°21'615.7
2017-Sep-14 16:55N 35°33' W 006°27'715.8
2017-Sep-14 16:30N 35°28' W 006°33'815.9
2017-Sep-14 16:01N 35°23' W 006°39'917.7
2017-Sep-14 15:31N 35°16' W 006°47'917.7
2017-Sep-14 15:01N 35°10' W 006°55'917.9
2017-Sep-14 14:31N 35°04' W 007°03'917.9
2017-Sep-14 14:01N 34°57' W 007°10'917.7
2017-Sep-14 13:30N 34°51' W 007°18'917.8
2017-Sep-14 13:01N 34°45' W 007°25'917.7
2017-Sep-14 12:31N 34°38' W 007°33'1117.8
2017-Sep-14 11:52N 34°30' W 007°43'718.4
2017-Sep-14 11:31N 34°25' W 007°48'3518.2
2017-Sep-14 09:35N 34°00' W 008°18'1418.1
2017-Sep-14 08:48N 33°51' W 008°30'1517.9
2017-Sep-14 07:56N 33°40' W 008°44'817.9
2017-Sep-14 07:30N 33°34' W 008°50'917.8
2017-Sep-14 07:00N 33°28' W 008°58'917.6
2017-Sep-14 06:30N 33°22' W 009°05'1318.0
2017-Sep-14 05:46N 33°12' W 009°16'518.1
2017-Sep-14 05:30N 33°09' W 009°20'918.3
2017-Sep-14 05:00N 33°03' W 009°28'918.6
2017-Sep-14 04:31N 32°56' W 009°36'1018.3
2017-Sep-14 03:59N 32°48' W 009°42'918.2
2017-Sep-14 03:31N 32°41' W 009°49'917.8
2017-Sep-14 03:01N 32°34' W 009°55'918.0
2017-Sep-14 02:31N 32°27' W 010°01'917.8
2017-Sep-14 02:00N 32°19' W 010°07'917.9
2017-Sep-14 01:30N 32°12' W 010°13'918.0
2017-Sep-14 01:01N 32°05' W 010°19'1017.9
2017-Sep-14 00:27N 31°57' W 010°26'817.9
2017-Sep-14 00:01N 31°50' W 010°31'1217.6
2017-Sep-13 23:21N 31°41' W 010°39'617.7
2017-Sep-13 23:01N 31°36' W 010°43'917.8
2017-Sep-13 22:31N 31°29' W 010°49'917.1
2017-Sep-13 21:59N 31°21' W 010°55'817.2
2017-Sep-13 21:30N 31°14' W 011°01'916.9
2017-Sep-13 21:00N 31°08' W 011°07'816.8
2017-Sep-13 20:31N 31°01' W 011°12'917.2
2017-Sep-13 20:00N 30°54' W 011°18'917.5
2017-Sep-13 19:30N 30°46' W 011°24'917.7
2017-Sep-13 19:00N 30°39' W 011°30'918.3
2017-Sep-13 18:30N 30°32' W 011°36'918.2
2017-Sep-13 18:00N 30°24' W 011°42'918.4
2017-Sep-13 17:30N 30°17' W 011°48'918.7
2017-Sep-13 17:00N 30°09' W 011°54'1018.6
2017-Sep-13 16:28N 30°01' W 012°01'818.4
2017-Sep-13 16:01N 29°54' W 012°07'918.2
2017-Sep-13 15:30N 29°47' W 012°13'918.4
2017-Sep-13 15:00N 29°39' W 012°19'918.5
2017-Sep-13 14:31N 29°32' W 012°25'918.7
2017-Sep-13 14:01N 29°24' W 012°31'918.8
2017-Sep-13 13:31N 29°16' W 012°37'918.7
2017-Sep-13 13:01N 29°09' W 012°44'918.5
2017-Sep-13 12:31N 29°01' W 012°50'918.2
2017-Sep-13 12:00N 28°54' W 012°56'918.1
2017-Sep-13 11:31N 28°47' W 013°02'917.9
2017-Sep-13 11:00N 28°39' W 013°08'918.2
2017-Sep-13 10:31N 28°32' W 013°14'1018.6
2017-Sep-13 10:00N 28°24' W 013°20'918.4
2017-Sep-13 09:31N 28°17' W 013°26'1018.5
2017-Sep-13 08:59N 28°09' W 013°33'918.4
2017-Sep-13 08:31N 28°02' W 013°39'1018.4
2017-Sep-13 07:59N 27°55' W 013°46'1518.5
2017-Sep-13 07:12N 27°44' W 013°57'518.6
2017-Sep-13 06:57N 27°41' W 014°01'818.3
2017-Sep-13 06:30N 27°35' W 014°07'1018.5
2017-Sep-13 05:57N 27°27' W 014°15'818.9
2017-Sep-13 05:30N 27°21' W 014°21'918.5
2017-Sep-13 05:00N 27°14' W 014°28'2318.3
2017-Sep-13 03:44N 26°57' W 014°46'518.0
2017-Sep-13 03:26N 26°53' W 014°50'  
Track history (hours):
 
Tides and Currents Weather Stations Pressure Air Temp Water Temp Dewpoint Dewpoint Depression Visibility Wind Speed Wind Dir Waves Ship Positions

CMA CGM Platon

Last reported at 2017-Sep-20 09:21 UTC. Time now 2017-Sep-20 22:09 UTC.
Position N 31°38' W 010°41'.

Length 170 m; draft 9 m.

Type: Ship (hazmat cat A). MMSI: 235058584.

Date/timePositionNaut miles runAvg speedWind from/ knotsBaromVisibWave heightAir tempDewpointWater temp
2017-Sep-20 09:21N 31°38' W 010°41'2017.1
2017-Sep-20 08:12N 31°55' W 010°27'316.9
2017-Sep-20 08:00N 31°57' W 010°25'2217.0
2017-Sep-20 06:44N 32°15' W 010°10'1916.9
2017-Sep-20 05:36N 32°31' W 009°57'216.9
2017-Sep-20 05:27N 32°33' W 009°56'5116.6
2017-Sep-20 02:24N 33°09' W 009°14'6417.2
2017-Sep-19 22:40N 33°39' W 008°06'1416.7
2017-Sep-19 21:49N 33°41' W 007°49'516.8
2017-Sep-19 21:30N 33°41' W 007°43'161 6.5
2017-Sep-18 20:37N 35°56' W 005°55'1017.8
2017-Sep-18 20:04N 35°57' W 005°44'716.6
2017-Sep-18 19:39N 35°57' W 005°35'214.4
2017-Sep-18 19:31N 35°57' W 005°33'14 0.8
2017-Sep-18 00:35N 35°56' W 005°50'  
2017-Sep-15 18:39N 36°07' W 006°18'0 0.6
2017-Sep-15 18:21N 36°07' W 006°17'3311.0
2017-Sep-15 15:22N 35°58' W 005°38'410.5
2017-Sep-15 15:00N 35°59' W 005°34'5 9.7
2017-Sep-15 14:31N 36°00' W 005°28'4 8.9
2017-Sep-15 14:01N 36°03' W 005°24'5 9.3
2017-Sep-15 13:31N 36°08' W 005°25'0 0.1
2017-Sep-15 11:57N 36°08' W 005°25'0 0.0
2017-Sep-15 06:03N 36°08' W 005°25'0 0.0
2017-Sep-15 04:39N 36°08' W 005°25'0 0.0
2017-Sep-15 04:03N 36°08' W 005°25'0 0.2
2017-Sep-15 04:00N 36°08' W 005°25'0 0.1
2017-Sep-15 03:30N 36°08' W 005°25'0 0.1
2017-Sep-15 03:00N 36°08' W 005°25'0 0.0
2017-Sep-15 01:45N 36°08' W 005°25'0 0.1
2017-Sep-15 01:30N 36°08' W 005°25'0 0.0
2017-Sep-14 23:03N 36°08' W 005°25'0 0.0
2017-Sep-14 22:39N 36°08' W 005°25'0 1.0
2017-Sep-14 22:30N 36°08' W 005°25'1 2.6
2017-Sep-14 21:59N 36°07' W 005°24'3 6.2
2017-Sep-14 21:30N 36°05' W 005°23'4 8.8
2017-Sep-14 21:00N 36°00' W 005°23'612.1
2017-Sep-14 20:31N 35°57' W 005°29'1814.6
2017-Sep-14 19:17N 35°54' W 005°51'1815.1
2017-Sep-14 18:06N 35°46' W 006°11'216.0
2017-Sep-14 17:59N 35°45' W 006°12'1015.8
2017-Sep-14 17:20N 35°37' W 006°21'615.7
2017-Sep-14 16:55N 35°33' W 006°27'715.8
2017-Sep-14 16:30N 35°28' W 006°33'815.9
2017-Sep-14 16:01N 35°23' W 006°39'917.7
2017-Sep-14 15:31N 35°16' W 006°47'917.7
2017-Sep-14 15:01N 35°10' W 006°55'917.9
2017-Sep-14 14:31N 35°04' W 007°03'917.9
2017-Sep-14 14:01N 34°57' W 007°10'917.7
2017-Sep-14 13:30N 34°51' W 007°18'917.8
2017-Sep-14 13:01N 34°45' W 007°25'917.7
2017-Sep-14 12:31N 34°38' W 007°33'1117.8
2017-Sep-14 11:52N 34°30' W 007°43'718.4
2017-Sep-14 11:31N 34°25' W 007°48'3518.2
2017-Sep-14 09:35N 34°00' W 008°18'1418.1
2017-Sep-14 08:48N 33°51' W 008°30'1517.9
2017-Sep-14 07:56N 33°40' W 008°44'817.9
2017-Sep-14 07:30N 33°34' W 008°50'917.8
2017-Sep-14 07:00N 33°28' W 008°58'917.6
2017-Sep-14 06:30N 33°22' W 009°05'1318.0
2017-Sep-14 05:46N 33°12' W 009°16'518.1
2017-Sep-14 05:30N 33°09' W 009°20'918.3
2017-Sep-14 05:00N 33°03' W 009°28'918.6
2017-Sep-14 04:31N 32°56' W 009°36'1018.3
2017-Sep-14 03:59N 32°48' W 009°42'918.2
2017-Sep-14 03:31N 32°41' W 009°49'917.8
2017-Sep-14 03:01N 32°34' W 009°55'918.0
2017-Sep-14 02:31N 32°27' W 010°01'917.8
2017-Sep-14 02:00N 32°19' W 010°07'917.9
2017-Sep-14 01:30N 32°12' W 010°13'918.0
2017-Sep-14 01:01N 32°05' W 010°19'1017.9
2017-Sep-14 00:27N 31°57' W 010°26'817.9
2017-Sep-14 00:01N 31°50' W 010°31'1217.6
2017-Sep-13 23:21N 31°41' W 010°39'617.7
2017-Sep-13 23:01N 31°36' W 010°43'917.8
2017-Sep-13 22:31N 31°29' W 010°49'917.1
2017-Sep-13 21:59N 31°21' W 010°55'817.2
2017-Sep-13 21:30N 31°14' W 011°01'916.9
2017-Sep-13 21:00N 31°08' W 011°07'816.8
2017-Sep-13 20:31N 31°01' W 011°12'917.2
2017-Sep-13 20:00N 30°54' W 011°18'917.5
2017-Sep-13 19:30N 30°46' W 011°24'917.7
2017-Sep-13 19:00N 30°39' W 011°30'918.3
2017-Sep-13 18:30N 30°32' W 011°36'918.2
2017-Sep-13 18:00N 30°24' W 011°42'918.4
2017-Sep-13 17:30N 30°17' W 011°48'918.7
2017-Sep-13 17:00N 30°09' W 011°54'1018.6
2017-Sep-13 16:28N 30°01' W 012°01'818.4
2017-Sep-13 16:01N 29°54' W 012°07'918.2
2017-Sep-13 15:30N 29°47' W 012°13'918.4
2017-Sep-13 15:00N 29°39' W 012°19'918.5
2017-Sep-13 14:31N 29°32' W 012°25'918.7
2017-Sep-13 14:01N 29°24' W 012°31'918.8
2017-Sep-13 13:31N 29°16' W 012°37'918.7
2017-Sep-13 13:01N 29°09' W 012°44'918.5
2017-Sep-13 12:31N 29°01' W 012°50'918.2
2017-Sep-13 12:00N 28°54' W 012°56'918.1
2017-Sep-13 11:31N 28°47' W 013°02'917.9
2017-Sep-13 11:00N 28°39' W 013°08'918.2
2017-Sep-13 10:31N 28°32' W 013°14'1018.6
2017-Sep-13 10:00N 28°24' W 013°20'918.4
2017-Sep-13 09:31N 28°17' W 013°26'1018.5
2017-Sep-13 08:59N 28°09' W 013°33'918.4
2017-Sep-13 08:31N 28°02' W 013°39'1018.4
2017-Sep-13 07:59N 27°55' W 013°46'1518.5
2017-Sep-13 07:12N 27°44' W 013°57'518.6
2017-Sep-13 06:57N 27°41' W 014°01'818.3
2017-Sep-13 06:30N 27°35' W 014°07'1018.5
2017-Sep-13 05:57N 27°27' W 014°15'818.9
2017-Sep-13 05:30N 27°21' W 014°21'918.5
2017-Sep-13 05:00N 27°14' W 014°28'2318.3
2017-Sep-13 03:44N 26°57' W 014°46'518.0
2017-Sep-13 03:26N 26°53' W 014°50'  

Dump ship's entire track history